createdAt,value
2019-03-27T00:01:33.122Z,8.98
2019-03-27T00:03:40.951Z,10.68
2019-03-27T00:05:48.752Z,13.50
2019-03-27T00:07:56.606Z,13.62
2019-03-27T00:10:07.461Z,11.12
2019-03-27T00:12:15.146Z,12.10
2019-03-27T00:14:23.232Z,6.87
2019-03-27T00:16:32.050Z,9.03
2019-03-27T00:18:39.812Z,12.88
2019-03-27T00:20:48.687Z,13.60
2019-03-27T00:22:57.558Z,8.90
2019-03-27T00:25:08.612Z,6.00
2019-03-27T00:27:16.281Z,16.23
2019-03-27T00:29:23.967Z,9.28
2019-03-27T00:31:31.648Z,10.35
2019-03-27T00:33:39.489Z,17.55
2019-03-27T00:35:47.353Z,11.13
2019-03-27T00:37:55.202Z,15.35
2019-03-27T00:40:03.182Z,8.80
2019-03-27T00:42:10.757Z,8.33
2019-03-27T00:44:18.447Z,10.75
2019-03-27T00:46:26.079Z,13.58
2019-03-27T00:48:34.956Z,8.33
2019-03-27T00:50:42.926Z,14.15
2019-03-27T00:52:50.826Z,9.73
2019-03-27T00:54:59.826Z,10.40
2019-03-27T00:57:07.533Z,9.98
2019-03-27T00:59:15.468Z,12.85
2019-03-27T01:01:23.159Z,12.58
2019-03-27T01:03:31.084Z,18.98
2019-03-27T01:05:38.731Z,8.48
2019-03-27T01:07:46.475Z,10.98
2019-03-27T01:09:54.159Z,16.00
2019-03-27T01:12:02.128Z,15.35
2019-03-27T01:14:09.951Z,9.28
2019-03-27T01:16:18.281Z,6.03
2019-03-27T01:18:26.009Z,7.73
2019-03-27T01:20:33.752Z,13.10
2019-03-27T01:22:41.560Z,10.98
2019-03-27T01:24:51.553Z,11.30
2019-03-27T01:26:59.460Z,10.43
2019-03-27T01:29:07.156Z,21.68
2019-03-27T01:31:14.986Z,12.25
2019-03-27T01:33:22.666Z,9.30
2019-03-27T01:35:30.534Z,6.67
2019-03-27T01:37:38.422Z,9.05
2019-03-27T01:39:46.247Z,13.08
2019-03-27T01:41:53.938Z,11.78
2019-03-27T01:44:01.824Z,14.10
2019-03-27T01:46:09.683Z,10.68
2019-03-27T01:48:17.369Z,7.30
2019-03-27T01:50:25.259Z,17.60
2019-03-27T01:52:32.950Z,13.30
2019-03-27T01:54:40.685Z,4.65
2019-03-27T01:56:48.394Z,24.12
2019-03-27T01:58:56.078Z,18.92
2019-03-27T02:01:03.837Z,6.53
2019-03-27T02:03:11.535Z,15.93
2019-03-27T02:05:19.224Z,13.90
2019-03-27T02:07:26.907Z,10.20
2019-03-27T02:09:34.580Z,10.30
2019-03-27T02:11:42.430Z,10.73
2019-03-27T02:13:50.222Z,13.37
2019-03-27T02:16:06.818Z,8.67
2019-03-27T02:18:08.202Z,11.20
2019-03-27T02:20:16.102Z,12.65
2019-03-27T02:22:23.811Z,18.17
2019-03-27T02:24:31.560Z,14.28
2019-03-27T02:26:39.245Z,10.05
2019-03-27T02:28:47.186Z,16.80
2019-03-27T02:30:54.880Z,19.77
2019-03-27T02:33:02.656Z,7.10
2019-03-27T02:35:10.544Z,12.55
2019-03-27T02:37:18.233Z,15.50
2019-03-27T02:39:27.066Z,7.62
2019-03-27T02:41:34.781Z,18.82
2019-03-27T02:43:42.465Z,13.47
2019-03-27T02:45:50.067Z,10.25
2019-03-27T02:47:57.927Z,12.95
2019-03-27T02:50:07.936Z,9.43
2019-03-27T02:52:16.483Z,13.27
2019-03-27T02:54:25.498Z,10.33
2019-03-27T02:56:33.215Z,15.55
2019-03-27T02:58:41.038Z,17.52
2019-03-27T03:00:48.648Z,10.17
2019-03-27T03:02:56.472Z,13.00
2019-03-27T03:05:06.497Z,9.85
2019-03-27T03:07:14.563Z,15.17
2019-03-27T03:09:22.321Z,13.43
2019-03-27T03:11:30.444Z,14.70
2019-03-27T03:13:38.153Z,17.32
2019-03-27T03:15:45.835Z,13.48
2019-03-27T03:17:54.982Z,12.17
2019-03-27T03:20:03.120Z,11.40
2019-03-27T03:22:10.731Z,13.40
2019-03-27T03:24:18.508Z,9.07
2019-03-27T03:26:26.235Z,11.40
2019-03-27T03:28:33.928Z,14.07
2019-03-27T03:30:41.618Z,12.13
2019-03-27T03:32:49.553Z,8.87
2019-03-27T03:34:57.229Z,11.65
2019-03-27T03:37:05.028Z,12.70
2019-03-27T03:39:12.961Z,11.12
2019-03-27T03:41:20.750Z,13.70
2019-03-27T03:43:28.582Z,7.70
2019-03-27T03:45:36.406Z,12.33
2019-03-27T03:47:43.985Z,16.12
2019-03-27T03:49:51.704Z,9.48
2019-03-27T03:51:59.589Z,15.48
2019-03-27T03:54:08.582Z,16.45
2019-03-27T03:56:16.528Z,12.63
2019-03-27T03:58:27.200Z,11.48
2019-03-27T04:00:35.212Z,11.18
2019-03-27T04:02:44.608Z,15.23
2019-03-27T04:04:53.348Z,25.25
2019-03-27T04:07:01.135Z,29.67
2019-03-27T04:09:09.217Z,6.53
2019-03-27T04:11:17.132Z,21.70
2019-03-27T04:13:24.872Z,20.00
2019-03-27T04:15:32.579Z,18.47
2019-03-27T04:17:40.306Z,14.23
2019-03-27T04:19:47.987Z,21.02
2019-03-27T04:21:56.713Z,14.50
2019-03-27T04:24:04.860Z,22.80
2019-03-27T04:26:12.642Z,13.40
2019-03-27T04:28:20.375Z,22.55
2019-03-27T04:30:28.063Z,16.23
2019-03-27T04:32:35.889Z,23.20
2019-03-27T04:34:46.941Z,21.23
2019-03-27T04:36:53.140Z,12.88
2019-03-27T04:39:00.796Z,9.63
2019-03-27T04:41:09.451Z,21.15
2019-03-27T04:43:17.128Z,18.35
2019-03-27T04:45:24.811Z,8.03
2019-03-27T04:47:32.798Z,10.72
2019-03-27T04:49:40.821Z,15.83
2019-03-27T04:51:48.585Z,17.82
2019-03-27T04:53:56.388Z,12.15
2019-03-27T04:56:05.234Z,17.07
2019-03-27T04:58:13.029Z,26.10
2019-03-27T05:00:21.060Z,16.48
2019-03-27T05:02:28.850Z,9.60
2019-03-27T05:04:37.303Z,14.98
2019-03-27T05:06:44.985Z,8.70
2019-03-27T05:08:52.701Z,9.25
2019-03-27T05:11:00.455Z,14.05
2019-03-27T05:13:08.200Z,16.45
2019-03-27T05:15:15.965Z,7.67
2019-03-27T05:17:23.643Z,5.70
2019-03-27T05:19:31.662Z,15.75
2019-03-27T05:21:40.539Z,6.15
2019-03-27T05:23:49.048Z,13.25
2019-03-27T05:25:56.737Z,12.70
2019-03-27T05:28:04.456Z,11.95
2019-03-27T05:30:12.581Z,10.00
2019-03-27T05:32:20.581Z,15.75
2019-03-27T05:34:28.677Z,16.97
2019-03-27T05:36:36.369Z,22.05
2019-03-27T05:38:44.063Z,15.58
2019-03-27T05:40:51.717Z,18.98
2019-03-27T05:43:01.118Z,8.93
2019-03-27T05:45:09.553Z,11.83
2019-03-27T05:47:17.321Z,18.92
2019-03-27T05:49:25.086Z,17.70
2019-03-27T05:51:32.935Z,18.92
2019-03-27T05:53:40.747Z,13.83
2019-03-27T05:55:48.430Z,12.15
2019-03-27T05:57:56.124Z,12.98
2019-03-27T06:00:04.857Z,12.65
2019-03-27T06:02:12.526Z,15.50
2019-03-27T06:04:20.380Z,17.67
2019-03-27T06:06:28.151Z,19.27
2019-03-27T06:08:35.930Z,19.65
2019-03-27T06:10:43.664Z,19.98
2019-03-27T06:12:51.347Z,12.13
2019-03-27T06:14:59.099Z,13.95
2019-03-27T06:17:07.000Z,19.15
2019-03-27T06:19:14.701Z,15.13
2019-03-27T06:21:22.378Z,10.78
2019-03-27T06:23:29.997Z,7.22
2019-03-27T06:25:38.235Z,16.25
2019-03-27T06:27:45.868Z,17.10
2019-03-27T06:29:53.539Z,13.03
2019-03-27T06:32:01.216Z,14.20
2019-03-27T06:34:08.950Z,45.95
2019-03-27T06:36:16.823Z,8.43
2019-03-27T06:38:24.579Z,12.03
2019-03-27T06:40:32.248Z,8.73
2019-03-27T06:42:39.913Z,36.63
2019-03-27T06:44:48.086Z,9.83
2019-03-27T06:46:56.626Z,24.30
2019-03-27T06:49:04.553Z,22.02
2019-03-27T06:51:13.713Z,17.25
2019-03-27T06:53:21.283Z,15.43
2019-03-27T06:55:29.133Z,19.00
2019-03-27T06:57:36.983Z,21.52
2019-03-27T06:59:44.803Z,14.53
2019-03-27T07:01:52.571Z,19.30
2019-03-27T07:04:10.376Z,12.55
2019-03-27T07:06:09.876Z,20.92
2019-03-27T07:08:17.588Z,28.75
2019-03-27T07:10:25.289Z,6.97
2019-03-27T07:12:33.015Z,6.55
2019-03-27T07:14:41.024Z,8.23
2019-03-27T07:16:48.755Z,9.00
2019-03-27T07:18:56.492Z,6.25
2019-03-27T07:21:04.257Z,10.20
2019-03-27T07:23:12.026Z,9.45
2019-03-27T07:25:19.818Z,12.13
2019-03-27T07:27:27.706Z,7.28
2019-03-27T07:29:35.473Z,10.93
2019-03-27T07:31:44.298Z,9.93
2019-03-27T07:33:52.469Z,12.18
2019-03-27T07:36:00.330Z,4.35
2019-03-27T07:38:07.994Z,10.13
2019-03-27T07:40:15.973Z,11.00
2019-03-27T07:42:23.731Z,22.02
2019-03-27T07:44:31.388Z,9.00
2019-03-27T07:46:39.052Z,6.42
2019-03-27T07:48:53.940Z,6.92
2019-03-27T07:50:56.354Z,5.78
2019-03-27T07:53:04.016Z,8.93
2019-03-27T07:55:19.130Z,10.90
2019-03-27T07:57:21.234Z,14.07
2019-03-27T07:59:28.902Z,9.03
2019-03-27T08:01:36.494Z,13.35
2019-03-27T08:03:44.172Z,4.62
2019-03-27T08:05:52.108Z,8.65
2019-03-27T08:07:59.977Z,9.30
2019-03-27T08:10:08.919Z,9.95
2019-03-27T08:12:16.647Z,28.77
2019-03-27T08:14:24.361Z,20.70
2019-03-27T08:16:32.383Z,8.23
2019-03-27T08:18:40.012Z,5.67
2019-03-27T08:20:47.762Z,8.03
2019-03-27T08:22:57.360Z,8.45
2019-03-27T08:25:07.430Z,12.90
2019-03-27T08:27:15.245Z,8.50
2019-03-27T08:29:22.993Z,7.12
2019-03-27T08:31:32.290Z,6.00
2019-03-27T08:33:39.894Z,4.20
2019-03-27T08:35:47.534Z,8.08
2019-03-27T08:37:56.880Z,5.83
2019-03-27T08:40:09.131Z,6.12
2019-03-27T08:42:16.778Z,7.33
2019-03-27T08:44:24.440Z,6.17
2019-03-27T08:46:32.209Z,10.30
2019-03-27T08:48:39.915Z,5.40
2019-03-27T08:50:47.580Z,6.92
2019-03-27T08:52:56.477Z,7.75
2019-03-27T08:55:08.159Z,5.55
2019-03-27T08:57:16.981Z,8.83
2019-03-27T08:59:24.664Z,7.53
2019-03-27T09:01:33.315Z,6.97
2019-03-27T09:03:40.878Z,13.68
2019-03-27T09:05:48.785Z,10.63
2019-03-27T09:07:56.465Z,7.97
2019-03-27T09:10:07.207Z,5.00
2019-03-27T09:12:14.947Z,7.15
2019-03-27T09:14:22.682Z,9.73
2019-03-27T09:16:30.340Z,7.05
2019-03-27T09:18:38.137Z,8.45
2019-03-27T09:20:45.959Z,8.63
2019-03-27T09:22:53.624Z,14.45
2019-03-27T09:25:01.326Z,11.18
2019-03-27T09:27:09.099Z,4.70
2019-03-27T09:29:16.837Z,8.18
2019-03-27T09:31:25.498Z,6.53
2019-03-27T09:33:33.160Z,9.43
2019-03-27T09:35:41.007Z,12.98
2019-03-27T09:37:48.639Z,19.98
2019-03-27T09:39:56.377Z,8.13
2019-03-27T09:42:04.177Z,8.05
2019-03-27T09:44:11.938Z,5.60
2019-03-27T09:46:19.601Z,6.00
2019-03-27T09:48:27.347Z,9.05
2019-03-27T09:50:35.040Z,15.85
2019-03-27T09:52:42.848Z,8.88
2019-03-27T09:54:50.503Z,11.53
2019-03-27T09:56:58.213Z,7.47
2019-03-27T09:59:06.220Z,8.65
2019-03-27T10:01:14.892Z,5.20
2019-03-27T10:03:22.635Z,5.97
2019-03-27T10:05:30.299Z,6.78
2019-03-27T10:07:38.030Z,9.45
2019-03-27T10:09:45.724Z,3.87
2019-03-27T10:11:53.450Z,5.80
2019-03-27T10:14:01.186Z,6.10
2019-03-27T10:16:10.019Z,5.33
2019-03-27T10:18:17.657Z,5.62
2019-03-27T10:20:25.319Z,8.80
2019-03-27T10:22:33.083Z,4.58
2019-03-27T10:24:40.741Z,4.33
2019-03-27T10:26:48.502Z,6.53
2019-03-27T10:28:56.266Z,12.23
2019-03-27T10:31:03.912Z,8.45
2019-03-27T10:33:15.117Z,9.35
2019-03-27T10:35:21.573Z,3.47
2019-03-27T10:37:29.316Z,10.55
2019-03-27T10:39:36.982Z,4.60
2019-03-27T10:41:44.676Z,7.40
2019-03-27T10:43:53.441Z,4.78
2019-03-27T10:46:01.179Z,9.65
2019-03-27T10:48:08.894Z,6.47
2019-03-27T10:50:18.072Z,10.20
2019-03-27T10:52:26.890Z,4.40
2019-03-27T10:54:34.735Z,5.55
2019-03-27T10:56:42.537Z,4.40
2019-03-27T10:58:50.197Z,4.87
2019-03-27T11:00:57.885Z,6.12
2019-03-27T11:03:05.699Z,5.72
2019-03-27T11:05:13.733Z,7.40
2019-03-27T11:07:21.557Z,6.87
2019-03-27T11:09:29.291Z,7.08
2019-03-27T11:11:36.849Z,7.12
2019-03-27T11:13:44.613Z,14.80
2019-03-27T11:15:52.265Z,4.25
2019-03-27T11:17:59.993Z,6.22
2019-03-27T11:20:08.510Z,4.67
2019-03-27T11:22:16.156Z,4.53
2019-03-27T11:24:23.888Z,2.92
2019-03-27T11:26:31.647Z,3.47
2019-03-27T11:28:39.384Z,3.05
2019-03-27T11:30:48.577Z,1.45
2019-03-27T11:32:56.536Z,4.00
2019-03-27T11:35:05.111Z,4.70
2019-03-27T11:37:12.775Z,3.27
2019-03-27T11:39:20.563Z,6.00
2019-03-27T11:41:28.281Z,3.65
2019-03-27T11:43:35.942Z,7.05
2019-03-27T11:45:43.636Z,3.37
2019-03-27T11:47:51.412Z,4.72
2019-03-27T11:49:59.069Z,3.30
2019-03-27T11:52:07.171Z,5.50
2019-03-27T11:54:14.789Z,7.62
2019-03-27T11:56:23.707Z,3.30
2019-03-27T11:58:31.361Z,3.35
2019-03-27T12:00:53.476Z,6.28
2019-03-27T12:02:48.431Z,3.22
2019-03-27T12:04:56.213Z,6.55
2019-03-27T12:07:03.972Z,5.45
2019-03-27T12:09:11.682Z,4.72
2019-03-27T12:11:19.605Z,5.22
2019-03-27T12:13:27.235Z,3.12
2019-03-27T12:15:42.371Z,5.55
2019-03-27T12:17:50.160Z,3.62
2019-03-27T12:19:57.925Z,4.22
2019-03-27T12:22:05.591Z,4.22
2019-03-27T12:24:13.482Z,4.85
2019-03-27T12:26:21.104Z,2.83
2019-03-27T12:28:28.782Z,3.50
2019-03-27T12:30:37.990Z,4.85
2019-03-27T12:32:45.802Z,5.67
2019-03-27T12:34:53.442Z,4.22
2019-03-27T12:37:01.965Z,2.90
2019-03-27T12:39:09.794Z,4.45
2019-03-27T12:41:17.457Z,3.08
2019-03-27T12:43:25.156Z,6.08
2019-03-27T12:45:32.965Z,4.47
2019-03-27T12:47:40.662Z,5.80
2019-03-27T12:49:48.398Z,5.40
2019-03-27T12:51:56.195Z,5.50
2019-03-27T12:54:03.925Z,6.37
2019-03-27T12:56:11.701Z,4.83
2019-03-27T12:58:19.360Z,6.58
2019-03-27T13:00:27.538Z,5.53
2019-03-27T13:02:35.237Z,5.55
2019-03-27T13:04:42.968Z,6.00
2019-03-27T13:06:50.628Z,6.55
2019-03-27T13:08:58.319Z,7.25
2019-03-27T13:11:06.050Z,4.55
2019-03-27T13:13:13.790Z,6.85
2019-03-27T13:15:21.480Z,7.00
2019-03-27T13:17:29.154Z,9.00
2019-03-27T13:19:36.879Z,6.10
2019-03-27T13:21:44.907Z,4.20
2019-03-27T13:23:52.572Z,5.62
2019-03-27T13:26:00.304Z,3.60
2019-03-27T13:28:08.069Z,2.83
2019-03-27T13:30:16.834Z,4.92
2019-03-27T13:32:24.468Z,4.03
2019-03-27T13:34:32.229Z,4.30
2019-03-27T13:36:42.687Z,4.87
2019-03-27T13:38:50.945Z,2.62
2019-03-27T13:40:58.662Z,3.50
2019-03-27T13:43:07.438Z,3.20
2019-03-27T13:45:16.540Z,2.12
2019-03-27T13:47:24.416Z,2.70
2019-03-27T13:49:32.399Z,6.37
2019-03-27T13:51:41.171Z,5.08
2019-03-27T13:53:49.035Z,3.65
2019-03-27T13:55:56.767Z,5.22
2019-03-27T13:58:04.562Z,5.50
2019-03-27T14:00:14.242Z,4.58
2019-03-27T14:02:21.957Z,3.52
2019-03-27T14:04:29.639Z,4.70
2019-03-27T14:06:37.467Z,6.78
2019-03-27T14:08:45.241Z,8.33
2019-03-27T14:10:52.923Z,4.45
2019-03-27T14:13:00.618Z,7.40
2019-03-27T14:15:12.663Z,4.00
2019-03-27T14:17:20.327Z,4.97
2019-03-27T14:19:28.027Z,4.90
2019-03-27T14:21:35.834Z,3.20
2019-03-27T14:23:44.686Z,4.83
2019-03-27T14:25:52.424Z,2.72
2019-03-27T14:28:00.181Z,8.80
2019-03-27T14:30:12.164Z,4.45
2019-03-27T14:32:19.970Z,6.37
2019-03-27T14:34:27.698Z,3.72
2019-03-27T14:36:35.427Z,6.33
2019-03-27T14:38:43.326Z,4.10
2019-03-27T14:40:52.221Z,3.25
2019-03-27T14:42:59.951Z,3.05
2019-03-27T14:45:11.302Z,6.05
2019-03-27T14:47:18.997Z,5.33
2019-03-27T14:49:26.658Z,6.28
2019-03-27T14:51:34.498Z,5.40
2019-03-27T14:53:42.152Z,2.27
2019-03-27T14:55:49.912Z,6.00
2019-03-27T14:57:57.609Z,10.08
2019-03-27T15:00:09.760Z,4.72
2019-03-27T15:02:17.478Z,6.35
2019-03-27T15:04:25.238Z,5.17
2019-03-27T15:06:32.793Z,3.10
2019-03-27T15:08:40.580Z,5.12
2019-03-27T15:10:48.227Z,3.80
2019-03-27T15:12:56.027Z,2.70
2019-03-27T15:15:04.827Z,6.53
2019-03-27T15:17:12.617Z,4.85
2019-03-27T15:19:21.314Z,5.30
2019-03-27T15:21:29.037Z,4.28
2019-03-27T15:23:36.805Z,5.08
2019-03-27T15:25:44.615Z,4.08
2019-03-27T15:27:52.371Z,4.08
2019-03-27T15:30:00.264Z,3.20
2019-03-27T15:32:08.273Z,4.85
2019-03-27T15:34:15.931Z,10.95
2019-03-27T15:36:23.934Z,4.33
2019-03-27T15:38:31.617Z,10.03
2019-03-27T15:40:44.783Z,7.65
2019-03-27T15:42:53.477Z,11.85
2019-03-27T15:45:01.361Z,7.22
2019-03-27T15:47:09.096Z,3.25
2019-03-27T15:49:16.864Z,12.18
2019-03-27T15:51:24.603Z,15.88
2019-03-27T15:53:33.083Z,17.80
2019-03-27T15:55:41.970Z,6.35
2019-03-27T15:57:49.696Z,9.28
2019-03-27T15:59:57.260Z,5.65
2019-03-27T16:02:05.790Z,8.85
2019-03-27T16:04:13.354Z,14.70
2019-03-27T16:06:21.025Z,5.28
2019-03-27T16:08:28.782Z,6.72
2019-03-27T16:10:36.487Z,8.20
2019-03-27T16:12:44.144Z,9.05
2019-03-27T16:14:51.974Z,9.40
2019-03-27T16:17:12.744Z,6.70
2019-03-27T16:19:08.857Z,7.62
2019-03-27T16:21:16.581Z,5.95
2019-03-27T16:23:24.387Z,7.60
2019-03-27T16:25:32.052Z,10.10
2019-03-27T16:27:39.894Z,8.58
2019-03-27T16:29:47.669Z,7.33
2019-03-27T16:31:55.360Z,6.37
2019-03-27T16:34:03.188Z,13.00
2019-03-27T16:36:10.928Z,14.70
2019-03-27T16:38:18.769Z,10.10
2019-03-27T16:40:47.356Z,9.18
2019-03-27T16:42:56.071Z,14.47
2019-03-27T16:45:06.056Z,9.15
2019-03-27T16:47:14.020Z,23.67
2019-03-27T16:49:21.863Z,20.92
2019-03-27T16:51:29.531Z,18.48
2019-03-27T16:53:37.288Z,17.15
2019-03-27T16:55:45.107Z,22.75
2019-03-27T16:57:52.837Z,21.65
2019-03-27T17:00:00.799Z,16.67
2019-03-27T17:02:08.738Z,19.52
2019-03-27T17:04:16.418Z,21.35
2019-03-27T17:06:24.390Z,23.30
2019-03-27T17:08:32.066Z,26.73
2019-03-27T17:10:41.005Z,27.67
2019-03-27T17:12:48.778Z,32.45
2019-03-27T17:14:56.527Z,31.73
2019-03-27T17:17:04.198Z,32.42
2019-03-27T17:19:12.050Z,39.55
2019-03-27T17:21:19.799Z,47.93
2019-03-27T17:23:27.652Z,42.43
2019-03-27T17:25:35.423Z,71.22
2019-03-27T17:27:43.143Z,56.55
2019-03-27T17:29:50.768Z,57.73
2019-03-27T17:31:58.503Z,48.20
2019-03-27T17:34:06.244Z,43.58
2019-03-27T17:36:14.165Z,37.95
2019-03-27T17:38:24.734Z,47.95
2019-03-27T17:40:32.442Z,40.20
2019-03-27T17:42:40.239Z,99.22
2019-03-27T17:44:51.946Z,51.75
2019-03-27T17:46:58.463Z,83.45
2019-03-27T17:49:07.384Z,109.80
2019-03-27T17:51:15.170Z,65.78
2019-03-27T17:53:31.474Z,92.47
2019-03-27T17:55:32.549Z,105.05
2019-03-27T17:57:40.353Z,129.45
2019-03-27T17:59:48.035Z,181.12
2019-03-27T18:01:55.915Z,163.55
2019-03-27T18:04:03.624Z,253.47
2019-03-27T18:06:11.574Z,198.68
2019-03-27T18:08:19.320Z,136.82
2019-03-27T18:10:27.022Z,131.18
2019-03-27T18:12:34.804Z,144.35
2019-03-27T18:14:42.682Z,114.97
2019-03-27T18:16:50.419Z,127.27
2019-03-27T18:18:58.073Z,117.20
2019-03-27T18:21:06.352Z,126.62
2019-03-27T18:23:14.326Z,142.47
2019-03-27T18:25:21.986Z,147.87
2019-03-27T18:27:29.790Z,171.90
2019-03-27T18:29:38.562Z,188.42
2019-03-27T18:31:46.211Z,186.90
2019-03-27T18:33:55.094Z,187.55
2019-03-27T18:36:02.911Z,179.90
2019-03-27T18:38:10.670Z,176.20
2019-03-27T18:40:18.440Z,181.75
2019-03-27T18:42:26.288Z,210.63
2019-03-27T18:44:34.187Z,203.58
2019-03-27T18:46:42.826Z,195.65
2019-03-27T18:48:50.554Z,180.05
2019-03-27T18:50:58.341Z,121.82
2019-03-27T18:53:06.031Z,122.30
2019-03-27T18:55:25.800Z,94.87
2019-03-27T18:57:23.452Z,80.97
2019-03-27T18:59:31.529Z,82.95
2019-03-27T19:01:39.300Z,84.30
2019-03-27T19:03:47.050Z,68.78
2019-03-27T19:05:54.892Z,75.45
2019-03-27T19:08:02.611Z,80.07
2019-03-27T19:10:10.786Z,74.65
2019-03-27T19:12:18.547Z,75.62
2019-03-27T19:14:26.251Z,88.72
2019-03-27T19:16:34.035Z,112.80
2019-03-27T19:18:42.015Z,117.28
2019-03-27T19:20:49.733Z,112.60
2019-03-27T19:22:59.641Z,114.12
2019-03-27T19:25:09.294Z,115.90
2019-03-27T19:27:16.908Z,160.00
2019-03-27T19:29:24.676Z,149.10
2019-03-27T19:31:32.367Z,172.47
2019-03-27T19:33:40.164Z,173.85
2019-03-27T19:35:47.856Z,176.80
2019-03-27T19:37:55.694Z,291.32
2019-03-27T19:40:03.559Z,320.33
2019-03-27T19:42:11.257Z,249.62
2019-03-27T19:44:19.087Z,283.87
2019-03-27T19:46:27.016Z,320.90
2019-03-27T19:48:35.695Z,306.13
2019-03-27T19:50:43.534Z,238.18
2019-03-27T19:52:51.144Z,236.18
2019-03-27T19:54:58.837Z,221.90
2019-03-27T19:57:07.563Z,222.78
2019-03-27T19:59:15.343Z,283.68
2019-03-27T20:01:23.102Z,255.45
2019-03-27T20:03:30.864Z,277.73
2019-03-27T20:05:39.656Z,243.50
2019-03-27T20:07:47.380Z,234.50
2019-03-27T20:09:55.281Z,234.92
2019-03-27T20:12:03.080Z,276.67
2019-03-27T20:14:10.841Z,357.92
2019-03-27T20:16:18.441Z,351.52
2019-03-27T20:18:26.354Z,359.62
2019-03-27T20:20:36.659Z,397.17
2019-03-27T20:22:44.522Z,349.48
2019-03-27T20:24:52.376Z,338.15
2019-03-27T20:27:00.142Z,297.00
2019-03-27T20:29:07.845Z,292.30
2019-03-27T20:31:15.600Z,275.27
2019-03-27T20:33:23.365Z,269.70
2019-03-27T20:35:31.162Z,277.07
2019-03-27T20:37:38.979Z,271.73
2019-03-27T20:39:46.782Z,275.55
2019-03-27T20:41:54.516Z,257.90
2019-03-27T20:44:03.474Z,268.07
2019-03-27T20:46:24.112Z,269.18
2019-03-27T20:48:20.556Z,268.25
2019-03-27T20:50:29.324Z,253.65
2019-03-27T20:52:37.083Z,259.02
2019-03-27T20:54:54.936Z,267.90
2019-03-27T20:56:54.159Z,253.77
2019-03-27T20:59:01.943Z,246.72
2019-03-27T21:01:09.686Z,241.25
2019-03-27T21:03:17.446Z,229.35
2019-03-27T21:05:25.081Z,212.75
2019-03-27T21:07:32.785Z,215.68
2019-03-27T21:09:40.668Z,228.18
2019-03-27T21:11:48.564Z,206.30
2019-03-27T21:13:56.247Z,198.82
2019-03-27T21:16:03.957Z,185.40
2019-03-27T21:18:11.645Z,198.97
2019-03-27T21:20:20.725Z,197.47
2019-03-27T21:22:28.398Z,191.07
2019-03-27T21:24:36.219Z,205.98
2019-03-27T21:26:43.812Z,199.05
2019-03-27T21:28:51.489Z,246.45
2019-03-27T21:30:59.787Z,278.12
2019-03-27T21:33:08.046Z,275.00
2019-03-27T21:35:15.870Z,278.83
2019-03-27T21:37:23.575Z,280.25
2019-03-27T21:39:31.355Z,270.60
2019-03-27T21:41:39.069Z,268.27
2019-03-27T21:43:47.017Z,253.92
2019-03-27T21:45:54.670Z,256.63
2019-03-27T21:48:02.483Z,303.88
2019-03-27T21:50:10.675Z,334.43
2019-03-27T21:52:18.486Z,411.43
2019-03-27T21:54:26.288Z,443.95
2019-03-27T21:56:34.078Z,437.52
2019-03-27T21:58:42.005Z,498.07
2019-03-27T22:00:49.813Z,478.40
2019-03-27T22:02:57.507Z,473.75
2019-03-27T22:05:07.202Z,455.93
2019-03-27T22:07:15.032Z,398.77
2019-03-27T22:09:24.069Z,362.38
2019-03-27T22:11:31.835Z,367.20
2019-03-27T22:13:39.455Z,348.00
2019-03-27T22:15:47.152Z,371.93
2019-03-27T22:17:54.928Z,360.32
2019-03-27T22:20:02.846Z,365.65
2019-03-27T22:22:11.609Z,337.35
2019-03-27T22:24:19.370Z,336.95
2019-03-27T22:26:27.084Z,348.13
2019-03-27T22:28:34.962Z,350.90
2019-03-27T22:30:42.655Z,339.65
2019-03-27T22:32:50.457Z,305.20
2019-03-27T22:34:58.350Z,327.90
2019-03-27T22:37:06.128Z,321.40
2019-03-27T22:39:13.812Z,337.65
2019-03-27T22:41:21.642Z,325.02
2019-03-27T22:43:29.495Z,326.27
2019-03-27T22:45:39.019Z,314.80
2019-03-27T22:47:46.876Z,320.10
2019-03-27T22:49:54.639Z,301.02
2019-03-27T22:52:02.359Z,285.70
2019-03-27T22:54:10.553Z,277.30
2019-03-27T22:56:19.313Z,272.25
2019-03-27T22:58:27.166Z,267.57
2019-03-27T23:00:36.581Z,265.40
2019-03-27T23:02:45.947Z,293.63
2019-03-27T23:04:53.792Z,260.27
2019-03-27T23:07:01.619Z,269.80
2019-03-27T23:09:09.616Z,217.25
2019-03-27T23:11:17.484Z,246.97
2019-03-27T23:13:25.269Z,255.62
2019-03-27T23:15:33.100Z,247.40
2019-03-27T23:17:42.246Z,197.40
2019-03-27T23:19:51.270Z,201.73
2019-03-27T23:21:59.361Z,198.40
2019-03-27T23:24:07.252Z,177.32
2019-03-27T23:26:15.115Z,206.78
2019-03-27T23:28:22.923Z,195.03
2019-03-27T23:30:30.636Z,160.35
2019-03-27T23:32:38.620Z,149.23
2019-03-27T23:34:46.493Z,124.92
2019-03-27T23:36:54.236Z,94.75
2019-03-27T23:39:02.029Z,77.65
2019-03-27T23:41:11.460Z,79.70
2019-03-27T23:43:20.129Z,73.12
2019-03-27T23:45:27.808Z,74.42
2019-03-27T23:47:35.377Z,69.22
2019-03-27T23:49:43.240Z,70.62
2019-03-27T23:51:51.154Z,73.35
2019-03-27T23:53:59.299Z,82.27
2019-03-27T23:56:16.412Z,76.17
2019-03-27T23:58:16.272Z,82.42
